Flight Track Log - Related Links

Times and Time Zones

All times are in EST time to prevent confusion due to time zone crossing. See the UAL376 flight status page for this flight to view local times or setup timezone preferences in your user account.

Time Position Orientation Groundspeed Altitude Reporting Facility
EST Latitude Longitude Course Direction KTS MPH feet Rate Location/Type
Tue 07:19:49 AM 41.9667 -87.7704 215° Southwest  Level FlightAware Approximate
Tue 07:20:49 AM 41.9667 -87.7394 229° Southwest  Level FlightAware Approximate
Tue 07:22:01 AM 41.9167 -87.8167 87° East 248 285 5,300  Level Chicago TRACON
Tue 07:23:59 AM 41.9264 -87.5917 87° East 296 341 12,100 3,135 Climbing Chicago Center
Tue 07:24:59 AM 41.9325 -87.4547 88° East 330 380 14,600 2,600 Climbing Chicago Center
Tue 07:25:59 AM 41.9361 -87.3067 87° East 361 415 17,300 2,400 Climbing Chicago Center
Tue 07:26:59 AM 41.9417 -87.1556 87° East 389 448 19,400 2,250 Climbing Chicago Center
Tue 07:27:59 AM 41.9469 -86.9936 89° East 413 475 21,800 2,100 Climbing Chicago Center
Tue 07:28:59 AM 41.9494 -86.8231 88° East 441 507 23,600 1,700 Climbing Chicago Center
Tue 07:29:59 AM 41.9542 -86.6639 90° East 454 522 25,200 1,700 Climbing Chicago Center
Tue 07:30:59 AM 41.9542 -86.4850 87° East 476 548 27,000 1,700 Climbing Chicago Center
Tue 07:31:59 AM 41.9619 -86.3033 88° East 484 557 28,600 1,550 Climbing Chicago Center
Tue 07:32:59 AM 41.9667 -86.0936 88° East 491 565 30,100 1,550 Climbing Chicago Center
Tue 07:33:59 AM 41.9714 -85.9033 89° East 504 580 31,700 1,500 Climbing Chicago Center
Tue 07:34:59 AM 41.9736 -85.7047 92° East 521 600 33,100 1,450 Climbing Chicago Center
Tue 07:35:59 AM 41.9669 -85.5039 97° East 526 605 34,600 1,500 Climbing Chicago Center
Tue 07:36:59 AM 41.9478 -85.3069 97° East 531 611 36,100 1,258 Climbing Chicago Center
Tue 07:38:03 AM 41.9275 -85.0967 97° East 526 605 37,200 1,161 Climbing Cleveland Center
Tue 07:39:03 AM 41.9100 -84.9000 97° East 534 615 38,500 900 Climbing Cleveland Center
Tue 07:40:03 AM 41.8922 -84.7008 97° East 534 615 39,000 250 Climbing Cleveland Center
Tue 07:41:03 AM 41.8739 -84.5100 96° East 529 609 39,000  Level Cleveland Center
Tue 07:42:03 AM 41.8589 -84.3333 98° East 524 603 39,000 -50 Level Cleveland Center
Tue 07:43:03 AM 41.8367 -84.1200 97° East 524 603 38,900 -50 Descending Cleveland Center
Tue 07:44:03 AM 41.8175 -83.9239 97° East 524 603 38,900  Level Cleveland Center
Tue 07:45:03 AM 41.7981 -83.7250 106° East 524 603 38,900  Level Cleveland Center
Tue 07:46:03 AM 41.7572 -83.5339 109° East 529 609 38,900  Level Cleveland Center
Tue 07:47:03 AM 41.7078 -83.3453 109° East 536 617 38,900  Level Cleveland Center
Tue 07:48:03 AM 41.6581 -83.1539 110° East 541 623 38,900 50 Level Cleveland Center
Tue 07:49:03 AM 41.6078 -82.9686 109° East 532 612 39,000 50 Climbing Cleveland Center
Tue 07:50:03 AM 41.5575 -82.7781 110° East 537 618 39,000  Level Cleveland Center
Tue 07:51:03 AM 41.5067 -82.5933 110° East 537 618 39,000  Level Cleveland Center
Tue 07:52:03 AM 41.4536 -82.4006 110° East 537 618 39,000  Level Cleveland Center
Tue 07:53:03 AM 41.4022 -82.2136 109° East 543 625 39,000  Level Cleveland Center
Tue 07:54:03 AM 41.3586 -82.0411 112° Southeast 543 625 39,000  Level Cleveland Center
Tue 07:55:03 AM 41.3025 -81.8544 110° East 543 625 39,000  Level Cleveland Center
Tue 07:56:03 AM 41.2503 -81.6631 111° Southeast 543 625 39,000  Level Cleveland Center
Tue 07:57:03 AM 41.1978 -81.4772 112° Southeast 543 625 39,000  Level Cleveland Center
Tue 07:58:03 AM 41.1367 -81.2725 111° Southeast 543 625 39,000  Level Cleveland Center
Tue 07:59:03 AM 41.0814 -81.0844 109° East 543 625 39,000  Level Cleveland Center
Tue 08:00:03 AM 41.0381 -80.9189 112° Southeast 537 618 39,000  Level Cleveland Center
Tue 08:01:03 AM 40.9822 -80.7317 111° Southeast 537 618 39,000  Level Cleveland Center
Tue 08:02:03 AM 40.9281 -80.5475 112° Southeast 537 618 39,000  Level Cleveland Center
Tue 08:03:03 AM 40.8717 -80.3661 112° Southeast 531 611 39,000  Level Cleveland Center
Tue 08:04:03 AM 40.8147 -80.1825 116° Southeast 531 611 39,000  Level Cleveland Center
Tue 08:05:03 AM 40.7517 -80.0103 116° Southeast 531 611 39,000  Level Cleveland Center
Tue 08:06:03 AM 40.6794 -79.8111 115° Southeast 536 617 39,000  Level Cleveland Center
Tue 08:07:03 AM 40.6156 -79.6339 116° Southeast 541 623 39,000  Level Cleveland Center
Tue 08:08:03 AM 40.5494 -79.4572 116° Southeast 541 623 39,000  Level Cleveland Center
Tue 08:09:03 AM 40.4981 -79.3189 117° Southeast 541 623 39,000 -150 Level Cleveland Center
Tue 08:10:03 AM 40.4247 -79.1294 115° Southeast 529 609 38,700 -650 Descending Cleveland Center
Tue 08:11:03 AM 40.3619 -78.9508 106° East 529 609 37,700 -950 Descending Cleveland Center
Tue 08:12:03 AM 40.3217 -78.7722 94° East 524 603 36,800 -1,350 Descending Cleveland Center
Tue 08:13:03 AM 40.3122 -78.5792 90° East 515 593 35,000 -2,500 Descending Cleveland Center
Tue 08:14:03 AM 40.3131 -78.3911 90° East 515 593 31,800 -3,675 Descending Cleveland Center
Tue 08:15:43 AM 40.3133 -78.0667 91° East 531 611 25,200 -2,582 Descending New York Center
Tue 08:16:41 AM 40.3119 -77.8842 90° East 519 597 25,000 -655 Descending New York Center
Tue 08:17:42 AM 40.3125 -77.6989 91° East 507 583 23,900 -1,765 Descending New York Center
Tue 08:18:40 AM 40.3100 -77.5244 97° East 495 570 21,500 -2,370 Descending New York Center
Tue 08:19:41 AM 40.2944 -77.3569 102° East 480 552 19,200 -1,736 Descending New York Center
Tue 08:20:41 AM 40.2678 -77.1992 102° East 451 519 18,000 -600 Descending New York Center
Tue 08:21:41 AM 40.2408 -77.0389 102° East 446 513 18,000 -50 Level New York Center
Tue 08:22:42 AM 40.2158 -76.8817 101° East 441 507 17,900 -1,190 Descending New York Center
Tue 08:23:42 AM 40.1958 -76.7414 102° East 434 499 15,600 -1,934 Descending New York Center
Tue 08:24:43 AM 40.1686 -76.5786 102° East 423 487 14,000 -800 Descending New York Center
Tue 08:25:42 AM 40.1444 -76.4328 102° East 415 478 14,000 -634 Level New York Center
Tue 08:26:46 AM 40.1175 -76.2714 93° East 409 471 12,700 -1,442 Descending FAA TRACON SMA TRACON (SMA)
Tue 08:27:26 AM 40.1136 -76.1847 95° East 391 450 11,500 -1,350 Descending FAA TRACON SMA TRACON (SMA)
Tue 08:28:06 AM 40.1069 -76.0936 95° East 362 417 10,900 -900 Descending FAA TRACON SMA TRACON (SMA)
Tue 08:28:46 AM 40.1011 -76.0094 96° East 333 383 10,300 -1,125 Descending FAA TRACON SMA TRACON (SMA)
Tue 08:29:26 AM 40.0958 -75.9397 95° East 316 364 9,400 -1,425 Descending FAA TRACON SMA TRACON (SMA)
Tue 08:30:06 AM 40.0903 -75.8622 95° East 309 356 8,400 -1,050 Descending FAA TRACON SMA TRACON (SMA)
Tue 08:30:46 AM 40.0850 -75.7858 95° East 306 352 8,000 -300 Descending FAA TRACON SMA TRACON (SMA)
Tue 08:31:26 AM 40.0803 -75.7169 93° East 308 354 8,000 -750 Level FAA TRACON SMA TRACON (SMA)
Tue 08:32:06 AM 40.0769 -75.6414 93° East 302 348 7,000 -1,275 Descending FAA TRACON SMA TRACON (SMA)
Tue 08:32:46 AM 40.0736 -75.5669 94° East 294 338 6,300 -750 Descending FAA TRACON SMA TRACON (SMA)
Tue 08:33:26 AM 40.0706 -75.5075 93° East 254 292 6,000 -225 Descending FAA TRACON SMA TRACON (SMA)
Tue 08:34:06 AM 40.0678 -75.4444 94° East 251 289 6,000  Level FAA TRACON SMA TRACON (SMA)
Tue 08:34:46 AM 40.0647 -75.3903 92° East 252 290 6,000  Level FAA TRACON SMA TRACON (SMA)
Tue 08:35:27 AM 40.0628 -75.3256 95° East 247 284 6,000  Level FAA TRACON SMA TRACON (SMA)
Tue 08:36:07 AM 40.0589 -75.2678 94° East 232 267 6,000  Level FAA TRACON SMA TRACON (SMA)
Tue 08:36:46 AM 40.0561 -75.2197 151° Southeast 229 264 6,000  Level FAA TRACON SMA TRACON (SMA)
Tue 08:37:26 AM 40.0156 -75.1903 148° Southeast 225 259 6,000  Level FAA TRACON SMA TRACON (SMA)
Tue 08:38:06 AM 39.9778 -75.1600 77° East 226 260 6,000  Level FAA TRACON SMA TRACON (SMA)
Tue 08:38:46 AM 39.9861 -75.1117 75° East 218 251 6,000  Level FAA TRACON SMA TRACON (SMA)
Tue 08:39:27 AM 39.9969 -75.0594 74° East 214 246 6,000  Level FAA TRACON SMA TRACON (SMA)
Tue 08:40:06 AM 40.0072 -75.0119 75° East 196 226 6,000  Level FAA TRACON SMA TRACON (SMA)
Tue 08:40:46 AM 40.0156 -74.9714 73° East 196 226 6,000 -150 Level FAA TRACON SMA TRACON (SMA)
Tue 08:41:26 AM 40.0272 -74.9222 74° East 197 227 5,800 -675 Descending FAA TRACON SMA TRACON (SMA)
Tue 08:42:06 AM 40.0375 -74.8756 83° East 193 222 5,100 -600 Descending FAA TRACON SMA TRACON (SMA)
Tue 08:42:46 AM 40.0417 -74.8328 148° Southeast 220 253 5,000 -75 Descending FAA TRACON SMA TRACON (SMA)
Tue 08:43:26 AM 40.0072 -74.8050 201° Southwest 227 261 5,000 -375 Level FAA TRACON SMA TRACON (SMA)
Tue 08:44:06 AM 39.9744 -74.8217 222° Southwest 180 207 4,500 -750 Descending FAA TRACON SMA TRACON (SMA)
Tue 08:44:46 AM 39.9503 -74.8500 254° West 183 211 4,000 -375 Descending FAA TRACON SMA TRACON (SMA)
Tue 08:45:26 AM 39.9411 -74.8906 255° West 170 196 4,000  Level FAA TRACON SMA TRACON (SMA)
Tue 08:46:06 AM 39.9336 -74.9272 257° West 168 193 4,000  Level FAA TRACON SMA TRACON (SMA)
Tue 08:46:46 AM 39.9264 -74.9667 255° West 168 193 4,000 -300 Level FAA TRACON SMA TRACON (SMA)
Tue 08:47:26 AM 39.9175 -75.0086 255° West 166 191 3,600 -600 Descending FAA TRACON SMA TRACON (SMA)

Login

Don't have an account? Register now (free) for customized features, flight alerts, and more!